Time;durP1;ratioP1;P1;durP2;ratioP2;P2;SDS_P1;SDS_P2;PMS_P1;PMS_P2;Temp;Humidity;BMP_temperature;BMP_pressure;BME280_temperature;BME280_humidity;BME280_pressure;Samples;Min_cycle;Max_cycle;Signal;HPM_P1;HPM_P2
2022/06/23 00:01:57;;;;;;;10.30;5.93;;;14.50;99.90;;;;;;5033806;28;20112;-73
2022/06/23 00:04:27;;;;;;;9.27;6.47;;;14.50;99.90;;;;;;5032123;28;20499;-73
2022/06/23 00:07:00;;;;;;;9.88;7.03;;;14.40;99.90;;;;;;5031188;28;20048;-73
2022/06/23 00:09:38;;;;;;;9.90;5.38;;;14.40;99.90;;;;;;5032590;28;20093;-73
2022/06/23 00:12:32;;;;;;;9.07;6.10;;;14.40;99.90;;;;;;5032278;28;20398;-73
2022/06/23 00:15:01;;;;;;;9.85;6.47;;;14.50;99.90;;;;;;5031048;28;20507;-73
2022/06/23 00:17:39;;;;;;;9.88;6.70;;;14.50;99.90;;;;;;5035985;28;20471;-73
2022/06/23 00:20:28;;;;;;;8.48;6.53;;;14.40;99.90;;;;;;5034153;28;20095;-74
2022/06/23 00:22:59;;;;;;;8.45;5.43;;;14.30;99.90;;;;;;5028534;28;20073;-73
2022/06/23 00:25:49;;;;;;;8.55;6.70;;;14.30;99.90;;;;;;5031744;28;20049;-73
2022/06/23 00:28:19;;;;;;;8.40;6.10;;;14.30;99.90;;;;;;5046653;28;20041;-74
2022/06/23 00:30:49;;;;;;;9.00;5.95;;;14.30;99.90;;;;;;5032638;28;20053;-73
2022/06/23 00:33:25;;;;;;;10.40;6.95;;;14.30;99.90;;;;;;5049680;28;20041;-73
2022/06/23 00:35:52;;;;;;;9.60;6.55;;;14.30;99.90;;;;;;5032587;28;20542;-73
2022/06/23 00:38:22;;;;;;;8.52;6.63;;;14.30;99.90;;;;;;5016104;28;20050;-74
2022/06/23 00:40:48;;;;;;;11.25;6.90;;;14.30;99.90;;;;;;5025687;28;20091;-74
2022/06/23 00:43:15;;;;;;;7.43;5.38;;;14.20;99.90;;;;;;5033213;28;20124;-74
2022/06/23 00:45:59;;;;;;;9.35;6.72;;;14.10;99.90;;;;;;5032961;28;20129;-73
2022/06/23 00:48:47;;;;;;;9.18;7.15;;;14.20;99.90;;;;;;5031138;28;20435;-73
2022/06/23 00:51:19;;;;;;;9.98;6.28;;;14.10;99.90;;;;;;5031442;28;20053;-73
2022/06/23 00:53:57;;;;;;;9.55;6.72;;;14.10;99.90;;;;;;5031323;28;20052;-73
2022/06/23 00:56:55;;;;;;;8.93;6.70;;;14.10;99.90;;;;;;5017507;28;20061;-73
2022/06/23 00:59:36;;;;;;;9.73;6.53;;;14.10;99.90;;;;;;5031707;28;20543;-73
2022/06/23 01:02:11;;;;;;;10.98;6.88;;;14.10;99.90;;;;;;5046622;28;20503;-73
2022/06/23 01:04:42;;;;;;;9.20;6.65;;;14.10;99.90;;;;;;5040017;28;20041;-73
2022/06/23 01:07:41;;;;;;;9.48;5.93;;;14.00;99.90;;;;;;5031248;28;20124;-73
2022/06/23 01:10:19;;;;;;;9.45;7.65;;;14.00;99.90;;;;;;5031163;28;20046;-72
2022/06/23 01:12:52;;;;;;;9.57;7.53;;;14.00;99.90;;;;;;5031691;28;20049;-72
2022/06/23 01:15:34;;;;;;;10.55;7.90;;;14.10;99.90;;;;;;5037800;28;20114;-72
2022/06/23 01:18:22;;;;;;;11.48;8.07;;;14.00;99.90;;;;;;5032769;28;20192;-73
2022/06/23 01:21:15;;;;;;;9.68;7.28;;;14.00;99.90;;;;;;5031196;28;20068;-73
2022/06/23 01:24:23;;;;;;;11.18;8.50;;;13.90;99.90;;;;;;5032342;28;20053;-73
2022/06/23 01:27:15;;;;;;;10.95;8.13;;;13.90;99.90;;;;;;5034256;28;20091;-72
2022/06/23 01:29:48;;;;;;;11.70;8.90;;;13.80;99.90;;;;;;5033691;28;20049;-72
2022/06/23 01:32:21;;;;;;;11.32;8.70;;;13.80;99.90;;;;;;5036938;28;20040;-72
2022/06/23 01:35:12;;;;;;;11.60;9.30;;;13.80;99.90;;;;;;5034191;28;20049;-72
2022/06/23 01:37:48;;;;;;;11.27;7.88;;;13.70;99.90;;;;;;5051005;28;20184;-72
2022/06/23 01:40:25;;;;;;;11.25;7.95;;;13.70;99.90;;;;;;5036301;28;20037;-73
2022/06/23 01:43:20;;;;;;;10.10;8.02;;;13.70;99.90;;;;;;5037245;28;20053;-73
2022/06/23 01:45:51;;;;;;;11.80;8.50;;;13.70;99.90;;;;;;5037267;28;20060;-73
2022/06/23 01:51:33;;;;;;;14.20;11.30;;;13.60;99.90;;;;;;4995342;28;20058;-74
2022/06/23 01:54:14;;;;;;;12.82;9.93;;;13.50;99.90;;;;;;5026708;28;20111;-73
2022/06/23 01:56:44;;;;;;;12.05;9.13;;;13.50;99.90;;;;;;5034204;28;20049;-74
2022/06/23 01:59:31;;;;;;;13.52;9.73;;;13.50;99.90;;;;;;5033876;28;20411;-73
2022/06/23 02:02:12;;;;;;;11.60;8.88;;;13.50;99.90;;;;;;5034056;28;20104;-73
2022/06/23 02:04:53;;;;;;;11.07;8.73;;;13.40;99.90;;;;;;5035914;28;20095;-73
2022/06/23 02:07:23;;;;;;;15.80;11.60;;;13.40;99.90;;;;;;5035977;28;20068;-74
2022/06/23 02:09:52;;;;;;;14.65;10.40;;;13.20;99.90;;;;;;5033753;28;20420;-73
2022/06/23 02:12:31;;;;;;;11.63;9.27;;;13.20;99.90;;;;;;5033050;28;20085;-73
2022/06/23 02:15:12;;;;;;;14.43;10.50;;;13.20;99.90;;;;;;5033700;28;20053;-73
2022/06/23 02:17:51;;;;;;;15.23;11.53;;;13.20;99.90;;;;;;5038840;28;20083;-73
2022/06/23 02:20:38;;;;;;;17.23;11.32;;;13.20;99.90;;;;;;5044215;28;20289;-72
2022/06/23 02:23:12;;;;;;;13.73;10.40;;;13.20;99.90;;;;;;5036727;28;20096;-74
2022/06/23 02:25:47;;;;;;;14.73;10.68;;;13.10;99.90;;;;;;5053887;28;20045;-74
2022/06/23 02:28:22;;;;;;;10.07;8.10;;;13.10;99.90;;;;;;5032923;28;20085;-72
2022/06/23 02:30:54;;;;;;;12.80;9.95;;;13.10;99.90;;;;;;5033833;28;20481;-73
2022/06/23 02:33:37;;;;;;;14.15;11.48;;;13.10;99.90;;;;;;5046971;28;20120;-72
2022/06/23 02:36:12;;;;;;;12.75;9.75;;;13.10;99.90;;;;;;5040499;28;20040;-73
2022/06/23 02:38:46;;;;;;;15.55;11.68;;;13.10;99.90;;;;;;5041543;28;20124;-72
2022/06/23 02:41:18;;;;;;;12.85;10.35;;;13.10;99.90;;;;;;5020862;28;20505;-72
2022/06/23 02:43:44;;;;;;;14.48;11.38;;;13.10;99.90;;;;;;5032713;28;20048;-73
2022/06/23 02:46:34;;;;;;;12.52;10.18;;;13.10;99.90;;;;;;5053652;28;20049;-74
2022/06/23 02:49:22;;;;;;;15.65;11.70;;;13.10;99.90;;;;;;5053694;28;20068;-73
2022/06/23 02:52:20;;;;;;;14.80;11.07;;;13.10;99.90;;;;;;5027192;28;20056;-73
2022/06/23 02:55:03;;;;;;;14.30;11.40;;;13.00;99.90;;;;;;5046795;28;20042;-73
2022/06/23 02:58:06;;;;;;;16.23;12.38;;;12.90;99.90;;;;;;5033433;28;20049;-73
2022/06/23 03:00:54;;;;;;;14.45;11.70;;;12.90;99.90;;;;;;5033087;28;20071;-73
2022/06/23 03:03:29;;;;;;;13.15;11.40;;;12.90;99.90;;;;;;5039264;28;20056;-72
2022/06/23 03:06:03;;;;;;;15.55;12.70;;;12.90;99.90;;;;;;5039843;28;20499;-73
2022/06/23 03:08:48;;;;;;;19.10;14.00;;;12.90;99.90;;;;;;5052543;28;20403;-73
2022/06/23 03:11:51;;;;;;;14.50;11.63;;;12.90;99.90;;;;;;5037368;28;20053;-72
2022/06/23 03:14:22;;;;;;;12.80;11.00;;;12.90;99.90;;;;;;5043539;28;20056;-73
2022/06/23 03:16:54;;;;;;;14.32;11.27;;;12.90;99.90;;;;;;5048266;28;20050;-72
2022/06/23 03:19:27;;;;;;;15.70;12.57;;;12.90;99.90;;;;;;5032931;28;20057;-72
2022/06/23 03:22:24;;;;;;;15.77;12.82;;;12.90;99.90;;;;;;5023016;28;20111;-73
2022/06/23 03:25:09;;;;;;;15.90;12.70;;;12.90;99.90;;;;;;5033295;28;20060;-72
2022/06/23 03:27:42;;;;;;;24.30;16.38;;;12.90;99.90;;;;;;5051880;28;20080;-72
2022/06/23 03:30:19;;;;;;;15.93;13.25;;;12.90;99.90;;;;;;5037984;28;20080;-74
2022/06/23 03:32:59;;;;;;;17.33;13.20;;;12.90;99.90;;;;;;5041408;28;20064;-73
2022/06/23 03:35:28;;;;;;;15.50;12.15;;;12.90;99.90;;;;;;5033006;28;20353;-73
2022/06/23 03:38:15;;;;;;;14.65;11.48;;;12.90;99.90;;;;;;5032156;28;20107;-73
2022/06/23 03:43:53;;;;;;;12.95;10.85;;;12.90;99.90;;;;;;5047060;28;20056;-73
2022/06/23 03:46:30;;;;;;;14.38;11.65;;;12.90;99.90;;;;;;5045380;28;20048;-74
2022/06/23 03:49:10;;;;;;;13.23;10.75;;;13.00;99.90;;;;;;5031650;28;20474;-74
2022/06/23 03:51:40;;;;;;;13.55;10.85;;;13.00;99.90;;;;;;5042592;28;20376;-73
2022/06/23 03:54:16;;;;;;;14.52;12.25;;;13.00;99.90;;;;;;5018636;28;20099;-73
2022/06/23 03:57:17;;;;;;;16.30;12.75;;;13.00;99.90;;;;;;5032631;28;20117;-73
2022/06/23 03:59:58;;;;;;;15.70;12.33;;;13.00;99.90;;;;;;5030757;28;20054;-73
2022/06/23 04:02:28;;;;;;;12.13;10.07;;;13.00;99.90;;;;;;5032368;28;20056;-72
2022/06/23 04:05:09;;;;;;;13.38;10.65;;;13.10;99.90;;;;;;5023066;28;20041;-72
2022/06/23 04:07:47;;;;;;;14.88;12.02;;;13.20;99.90;;;;;;5037494;28;20049;-72
2022/06/23 04:10:37;;;;;;;18.30;13.98;;;13.20;99.90;;;;;;5042248;28;20053;-72
2022/06/23 04:13:19;;;;;;;15.77;11.10;;;13.20;99.90;;;;;;5034706;28;20049;-72
2022/06/23 04:15:49;;;;;;;15.55;12.57;;;13.20;99.90;;;;;;5039127;28;20404;-72
2022/06/23 04:18:23;;;;;;;15.18;13.02;;;13.20;99.90;;;;;;5049938;28;20114;-71
2022/06/23 04:20:56;;;;;;;15.90;12.43;;;13.20;99.90;;;;;;5051694;28;20396;-72
2022/06/23 04:23:33;;;;;;;14.95;11.80;;;13.20;99.90;;;;;;5031969;28;20091;-74
2022/06/23 04:26:05;;;;;;;14.98;12.30;;;13.20;99.90;;;;;;5032040;28;20393;-73
2022/06/23 04:28:36;;;;;;;14.88;12.10;;;13.20;99.90;;;;;;5031453;28;20053;-73
2022/06/23 04:31:06;;;;;;;18.60;14.68;;;13.20;99.90;;;;;;5044437;28;20487;-73
2022/06/23 04:33:38;;;;;;;16.63;13.00;;;13.20;99.90;;;;;;5050532;28;20048;-72
2022/06/23 04:36:04;;;;;;;13.43;10.57;;;13.20;99.90;;;;;;5050903;28;20048;-72
2022/06/23 04:38:46;;;;;;;12.65;10.10;;;13.20;99.90;;;;;;5047129;28;20538;-72
2022/06/23 04:41:40;;;;;;;13.30;10.55;;;13.20;99.90;;;;;;5043890;28;20057;-72
2022/06/23 04:44:26;;;;;;;16.38;12.98;;;13.20;99.90;;;;;;5025936;28;20057;-71
2022/06/23 04:47:15;;;;;;;14.90;11.05;;;13.20;99.90;;;;;;5031712;28;20058;-72
2022/06/23 04:49:53;;;;;;;18.83;14.68;;;13.20;99.90;;;;;;5039809;28;20045;-72
2022/06/23 04:52:35;;;;;;;16.58;12.38;;;13.30;99.90;;;;;;5048435;28;20492;-72
2022/06/23 04:55:19;;;;;;;17.27;13.82;;;13.60;99.90;;;;;;5041368;28;20041;-72
2022/06/23 04:57:51;;;;;;;16.05;13.27;;;14.00;99.90;;;;;;5031744;28;20139;-72
2022/06/23 05:00:39;;;;;;;15.27;11.52;;;14.20;99.90;;;;;;5042981;28;20041;-72
2022/06/23 05:03:24;;;;;;;13.40;10.82;;;15.00;99.90;;;;;;5041703;28;20044;-72
2022/06/23 05:06:08;;;;;;;14.23;10.50;;;15.70;99.90;;;;;;5040981;28;20396;-71
2022/06/23 05:08:39;;;;;;;16.05;10.00;;;16.30;99.90;;;;;;5045623;28;20115;-72
2022/06/23 05:11:38;;;;;;;11.68;10.05;;;16.80;99.90;;;;;;5051007;28;20060;-71
2022/06/23 05:14:16;;;;;;;12.95;9.98;;;17.60;99.90;;;;;;5054517;28;20052;-71
2022/06/23 05:16:46;;;;;;;12.88;9.23;;;18.40;99.90;;;;;;5018847;28;20060;-72
2022/06/23 05:19:26;;;;;;;13.95;9.23;;;18.60;99.90;;;;;;5031807;28;20053;-72
2022/06/23 05:22:00;;;;;;;12.80;8.80;;;19.30;99.90;;;;;;5042458;28;20120;-72
2022/06/23 05:24:30;;;;;;;12.75;9.45;;;20.10;99.90;;;;;;5041010;28;20049;-72
2022/06/23 05:27:02;;;;;;;11.35;9.57;;;20.10;99.90;;;;;;5041576;28;20053;-72
2022/06/23 05:29:46;;;;;;;;;;;20.50;99.90;;;;;;5039154;28;20553;-72
2022/06/23 05:32:27;;;;;;;12.13;8.30;;;20.50;99.90;;;;;;5035290;28;19979;-73
2022/06/23 05:35:06;;;;;;;12.15;9.95;;;20.70;99.90;;;;;;5038244;28;20092;-73
2022/06/23 05:37:49;;;;;;;11.48;8.50;;;20.80;99.90;;;;;;5037897;28;20053;-74
2022/06/23 05:40:35;;;;;;;10.68;7.95;;;21.30;99.90;;;;;;5034670;28;20045;-73
2022/06/23 05:43:02;;;;;;;10.98;8.25;;;22.40;99.50;;;;;;5040709;28;20048;-73
2022/06/23 05:45:36;;;;;;;11.52;8.20;;;22.20;99.90;;;;;;5039744;28;20396;-72
2022/06/23 05:48:08;;;;;;;12.38;8.68;;;23.10;98.40;;;;;;5033488;28;20046;-73
2022/06/23 05:50:46;;;;;;;12.00;9.73;;;22.70;97.80;;;;;;5036953;28;20041;-74
2022/06/23 05:53:44;;;;;;;11.80;9.30;;;22.30;97.60;;;;;;5046194;28;20046;-75
2022/06/23 05:56:14;;;;;;;11.48;7.53;;;22.30;98.30;;;;;;5026058;28;20056;-74
2022/06/23 05:59:02;;;;;;;9.93;7.80;;;22.70;98.70;;;;;;5051061;28;20095;-73
2022/06/23 06:01:45;;;;;;;10.25;7.05;;;22.50;98.40;;;;;;5037324;28;20114;-73
2022/06/23 06:04:21;;;;;;;12.50;9.05;;;22.90;99.30;;;;;;5036523;28;20116;-74
2022/06/23 06:06:47;;;;;;;12.20;7.70;;;22.30;98.40;;;;;;5051515;28;20045;-73
2022/06/23 06:09:35;;;;;;;10.30;7.68;;;22.50;99.60;;;;;;5039551;28;20469;-72
2022/06/23 06:12:06;;;;;;;11.27;7.68;;;22.40;99.90;;;;;;5035211;28;20128;-78
2022/06/23 06:14:39;;;;;;;11.30;7.25;;;22.70;99.60;;;;;;5033092;28;20103;-74
2022/06/23 06:17:06;;;;;;;10.70;7.43;;;22.50;99.90;;;;;;5034010;28;20052;-73
2022/06/23 06:19:33;;;;;;;11.27;8.32;;;22.90;99.30;;;;;;5037506;28;20049;-72
2022/06/23 06:22:38;;;;;;;11.65;7.03;;;23.10;98.90;;;;;;5049093;28;20075;-74
2022/06/23 06:25:05;;;;;;;10.73;8.00;;;23.10;97.30;;;;;;5025787;28;20045;-73
2022/06/23 06:27:31;;;;;;;10.70;7.10;;;23.10;97.50;;;;;;5033053;28;20461;-74
2022/06/23 06:29:58;;;;;;;9.20;7.57;;;23.90;98.10;;;;;;5038036;28;20041;-73
2022/06/23 06:32:49;;;;;;;10.48;7.47;;;23.70;96.00;;;;;;5037908;28;20111;-74
2022/06/23 06:35:18;;;;;;;;;;;23.70;96.00;;;;;;5029907;28;20046;-73
2022/06/23 06:37:51;;;;;;;10.52;7.60;;;24.00;95.00;;;;;;5053021;28;19921;-76
2022/06/23 06:40:17;;;;;;;10.40;6.75;;;24.20;94.30;;;;;;5049977;28;20037;-76
2022/06/23 06:42:47;;;;;;;9.95;7.43;;;23.90;96.70;;;;;;5016435;28;20049;-75
2022/06/23 06:45:17;;;;;;;12.73;6.25;;;23.80;95.80;;;;;;5040148;28;20124;-76
2022/06/23 06:47:44;;;;;;;11.52;7.20;;;25.10;94.00;;;;;;5046500;28;20057;-76
2022/06/23 06:50:19;;;;;;;8.88;6.13;;;25.40;90.80;;;;;;5035122;28;20053;-76
2022/06/23 06:52:45;;;;;;;9.93;6.70;;;25.30;90.90;;;;;;5035282;28;20477;-78
2022/06/23 06:55:15;;;;;;;10.75;6.90;;;25.10;91.60;;;;;;5023872;28;20064;-78
2022/06/23 06:58:07;;;;;;;8.77;6.85;;;25.40;91.00;;;;;;5037075;28;20046;-77
2022/06/23 07:00:35;;;;;;;;;;;25.40;87.70;;;;;;5046309;28;20419;-77
2022/06/23 07:03:06;;;;;;;10.85;6.63;;;25.20;89.80;;;;;;5049584;28;20065;-77
2022/06/23 07:06:12;;;;;;;10.07;6.80;;;25.70;90.50;;;;;;5050091;28;20064;-76
2022/06/23 07:08:43;;;;;;;9.63;5.95;;;25.10;88.80;;;;;;5047216;28;20064;-77
2022/06/23 07:11:30;;;;;;;8.55;5.78;;;25.20;90.10;;;;;;5034564;28;20058;-78
2022/06/23 07:14:20;;;;;;;9.40;6.45;;;25.70;87.20;;;;;;5032583;28;20480;-77
2022/06/23 07:16:58;;;;;;;8.75;6.00;;;25.40;84.40;;;;;;5033516;28;20049;-76
2022/06/23 07:19:33;;;;;;;11.05;6.97;;;25.50;86.30;;;;;;5034041;28;20054;-76
2022/06/23 07:22:12;;;;;;;8.85;6.70;;;26.00;83.70;;;;;;5033729;28;20125;-78
2022/06/23 07:24:49;;;;;;;8.35;6.00;;;25.80;84.00;;;;;;5033101;28;20403;-78
2022/06/23 07:27:28;;;;;;;10.20;5.88;;;25.90;81.50;;;;;;5035596;28;20041;-79
2022/06/23 07:29:59;;;;;;;8.32;5.95;;;26.20;84.00;;;;;;5035015;28;20085;-80
2022/06/23 07:32:46;;;;;;;8.68;5.47;;;25.90;87.30;;;;;;5033034;28;20115;-80
2022/06/23 07:35:28;;;;;;;8.88;6.20;;;26.20;83.70;;;;;;5034574;28;21242;-79
2022/06/23 07:38:04;;;;;;;8.25;5.25;;;26.80;79.50;;;;;;5031834;28;20488;-78
2022/06/23 07:40:42;;;;;;;9.10;5.43;;;27.00;76.50;;;;;;5034816;28;20114;-75
2022/06/23 07:43:16;;;;;;;8.45;5.22;;;26.80;77.20;;;;;;5030741;28;20192;-77
2022/06/23 07:46:00;;;;;;;10.40;5.57;;;26.60;78.80;;;;;;5034253;28;20492;-76
2022/06/23 07:48:28;;;;;;;9.65;4.88;;;26.20;76.70;;;;;;5034012;28;20062;-77
2022/06/23 07:50:55;;;;;;;9.88;5.10;;;26.70;79.20;;;;;;5033854;28;20059;-76
2022/06/23 07:53:37;;;;;;;7.47;4.72;;;27.10;77.40;;;;;;5031373;28;20037;-78
2022/06/23 07:56:04;;;;;;;8.32;4.50;;;27.30;71.60;;;;;;5030152;28;20096;-76
2022/06/23 07:58:33;;;;;;;7.53;4.18;;;27.50;73.80;;;;;;5030412;28;20512;-77
2022/06/23 08:01:10;;;;;;;8.70;4.75;;;27.80;67.70;;;;;;5036658;28;20040;-77
2022/06/23 08:03:49;;;;;;;8.35;4.53;;;27.60;67.50;;;;;;5033622;28;21348;-78
2022/06/23 08:06:18;;;;;;;7.85;4.10;;;27.70;69.50;;;;;;5033918;28;20092;-77
2022/06/23 08:08:45;;;;;;;8.57;4.30;;;27.70;67.60;;;;;;5032559;28;20063;-77
2022/06/23 08:14:21;;;;;;;8.93;4.25;;;27.60;67.90;;;;;;5032169;28;20068;-77
2022/06/23 08:16:49;;;;;;;8.00;3.70;;;27.80;67.70;;;;;;5031898;28;20041;-75
2022/06/23 08:19:42;;;;;;;6.38;3.40;;;28.40;65.00;;;;;;5028453;28;20045;-77
2022/06/23 08:22:21;;;;;;;7.85;3.83;;;28.30;63.10;;;;;;5040948;28;20396;-75
2022/06/23 08:24:50;;;;;;;6.30;3.55;;;28.00;60.60;;;;;;5038989;28;20045;-75
2022/06/23 08:27:20;;;;;;;6.95;3.67;;;28.20;60.50;;;;;;5030420;28;20050;-77
2022/06/23 08:29:52;;;;;;;8.07;3.60;;;28.30;59.40;;;;;;5032859;28;20460;-76
2022/06/23 08:32:18;;;;;;;8.18;3.10;;;27.60;61.30;;;;;;5051149;28;20037;-76
2022/06/23 08:34:56;;;;;;;6.55;2.90;;;28.30;61.70;;;;;;5051278;28;20110;-76
2022/06/23 08:37:23;;;;;;;7.68;3.95;;;28.60;61.30;;;;;;5050297;28;20145;-77
2022/06/23 08:40:34;;;;;;;8.27;3.97;;;29.10;59.80;;;;;;5036870;28;20156;-77
2022/06/23 08:43:13;;;;;;;7.80;3.70;;;28.70;61.00;;;;;;5009047;28;20132;-77
2022/06/23 08:46:05;;;;;;;7.15;3.80;;;28.60;60.20;;;;;;5014863;28;20126;-76
2022/06/23 08:48:51;;;;;;;6.20;3.33;;;28.50;59.10;;;;;;5043674;28;20109;-76
2022/06/23 08:51:26;;;;;;;7.22;3.72;;;28.80;59.80;;;;;;5014718;28;20049;-77
2022/06/23 08:54:09;;;;;;;7.25;3.90;;;28.30;58.60;;;;;;5044891;28;20059;-74
2022/06/23 08:57:03;;;;;;;6.00;3.20;;;28.40;58.20;;;;;;5051740;28;20053;-77
2022/06/23 08:59:59;;;;;;;8.02;4.00;;;28.60;57.70;;;;;;5033669;28;20075;-78
2022/06/23 09:02:51;;;;;;;7.63;3.50;;;28.30;57.50;;;;;;5031857;28;20124;-76
2022/06/23 09:05:41;;;;;;;7.13;3.20;;;28.50;56.20;;;;;;5032425;28;20118;-76
2022/06/23 09:08:12;;;;;;;7.38;3.38;;;28.30;57.30;;;;;;5031780;28;20049;-76
2022/06/23 09:10:51;;;;;;;7.10;3.10;;;28.30;57.30;;;;;;5031493;28;20058;-78
2022/06/23 09:13:31;;;;;;;7.38;3.22;;;28.30;57.10;;;;;;5033065;28;20392;-77
2022/06/23 09:16:03;;;;;;;6.05;3.20;;;28.60;56.90;;;;;;5032455;28;20033;-78
2022/06/23 09:18:44;;;;;;;6.75;3.63;;;28.50;56.20;;;;;;5039102;28;20057;-76
2022/06/23 09:21:35;;;;;;;6.00;3.30;;;28.60;56.40;;;;;;5062259;28;20052;-76
2022/06/23 09:24:30;;;;;;;8.05;3.40;;;28.50;55.50;;;;;;5023938;28;20464;-78
2022/06/23 09:26:58;;;;;;;7.88;3.00;;;28.90;55.40;;;;;;5024566;28;20042;-77
2022/06/23 09:29:51;;;;;;;5.95;2.60;;;29.20;56.50;;;;;;5037599;28;20084;-77
2022/06/23 09:32:45;;;;;;;6.18;2.70;;;29.60;54.40;;;;;;5031484;28;20491;-78
2022/06/23 09:35:40;;;;;;;7.53;2.80;;;30.00;53.40;;;;;;5032466;28;20045;-76
2022/06/23 09:38:20;;;;;;;5.93;2.90;;;29.90;51.50;;;;;;5045699;28;20079;-74
2022/06/23 09:41:00;;;;;;;6.45;2.60;;;29.90;51.60;;;;;;5035991;28;20454;-77
2022/06/23 09:44:03;;;;;;;5.40;2.40;;;29.70;53.90;;;;;;5046146;28;20049;-78
2022/06/23 09:46:47;;;;;;;7.30;2.45;;;29.90;53.30;;;;;;5031671;28;20045;-80
2022/06/23 09:49:38;;;;;;;7.03;2.47;;;29.90;48.80;;;;;;5035757;28;20133;-76
2022/06/23 09:52:12;;;;;;;5.25;2.33;;;30.20;49.20;;;;;;5036228;28;20120;-76
2022/06/23 09:55:00;;;;;;;6.93;2.35;;;30.30;49.60;;;;;;5034752;28;20366;-79
2022/06/23 09:57:45;;;;;;;7.00;2.70;;;30.50;50.60;;;;;;5021860;28;20053;-79
2022/06/23 10:00:30;;;;;;;5.10;2.40;;;30.50;47.10;;;;;;5039431;28;20119;-76
2022/06/23 10:03:29;;;;;;;7.57;2.47;;;30.40;46.80;;;;;;5034230;28;20125;-77
2022/06/23 10:06:23;;;;;;;7.13;2.50;;;30.60;48.80;;;;;;5035762;28;20041;-78
2022/06/23 10:09:05;;;;;;;5.05;2.42;;;30.80;47.60;;;;;;5034970;28;20046;-78
2022/06/23 10:12:19;;;;;;;6.80;2.50;;;30.60;48.00;;;;;;5041083;28;20057;-77
2022/06/23 10:15:03;;;;;;;6.10;2.50;;;30.60;47.00;;;;;;5015269;28;20090;-79
2022/06/23 10:17:51;;;;;;;6.32;2.25;;;30.10;50.00;;;;;;5022072;28;20057;-77
2022/06/23 10:20:19;;;;;;;6.78;2.40;;;30.50;47.60;;;;;;5046543;28;20555;-75
2022/06/23 10:23:23;;;;;;;6.70;2.30;;;30.80;45.30;;;;;;5034434;28;20073;-77
2022/06/23 10:25:51;;;;;;;7.07;2.28;;;31.10;44.80;;;;;;5033884;28;20053;-78
2022/06/23 10:28:38;;;;;;;7.95;2.42;;;31.40;45.70;;;;;;5039111;28;20484;-79
2022/06/23 10:31:41;;;;;;;5.70;2.30;;;31.10;43.70;;;;;;5037121;28;20055;-81
2022/06/23 10:34:39;;;;;;;6.25;2.20;;;31.20;43.40;;;;;;5043074;28;20045;-78
2022/06/23 10:37:21;;;;;;;5.03;2.20;;;31.40;45.90;;;;;;5057073;28;20041;-77
2022/06/23 10:40:08;;;;;;;;;;;31.50;45.20;;;;;;5023779;28;20053;-82
2022/06/23 10:42:39;;;;;;;5.93;2.40;;;31.30;45.90;;;;;;5035172;28;19921;-78
2022/06/23 10:45:17;;;;;;;5.85;2.10;;;31.30;44.10;;;;;;5042322;28;20145;-79
2022/06/23 10:48:12;;;;;;;4.32;1.75;;;31.50;44.10;;;;;;5032504;28;20477;-76
2022/06/23 10:50:52;;;;;;;5.25;2.08;;;31.60;43.20;;;;;;5036167;28;20119;-76
2022/06/23 10:53:39;;;;;;;5.10;2.00;;;31.80;41.30;;;;;;5032575;28;20045;-80
2022/06/23 10:56:17;;;;;;;5.05;2.20;;;31.80;41.90;;;;;;5036639;28;20045;-80
2022/06/23 10:59:12;;;;;;;5.25;2.00;;;31.80;43.80;;;;;;5017837;28;20129;-77
2022/06/23 11:02:02;;;;;;;5.90;2.00;;;32.00;41.70;;;;;;5036286;28;20115;-76
2022/06/23 11:05:05;;;;;;;5.50;2.10;;;32.10;41.70;;;;;;5040898;28;20053;-79
2022/06/23 11:08:11;;;;;;;4.72;2.00;;;32.20;42.30;;;;;;5033691;28;20218;-78
2022/06/23 11:10:55;;;;;;;5.32;2.00;;;32.10;41.30;;;;;;5034622;28;20056;-78
2022/06/23 11:13:35;;;;;;;5.20;2.30;;;32.10;41.20;;;;;;5033685;28;20135;-78
2022/06/23 11:16:39;;;;;;;5.63;2.00;;;32.20;43.60;;;;;;5036711;28;20041;-77
2022/06/23 11:19:31;;;;;;;4.63;2.15;;;32.30;40.60;;;;;;5034638;28;20124;-77
2022/06/23 11:22:23;;;;;;;5.97;2.20;;;32.40;41.70;;;;;;5010523;28;20245;-76
2022/06/23 11:25:13;;;;;;;18.33;2.83;;;32.50;40.30;;;;;;5047925;28;20048;-76
2022/06/23 11:27:57;;;;;;;6.28;2.10;;;32.40;39.70;;;;;;5044839;28;20045;-79
2022/06/23 11:30:46;;;;;;;6.20;1.90;;;32.40;38.80;;;;;;5037572;28;20041;-78
2022/06/23 11:33:46;;;;;;;5.72;2.00;;;32.40;40.00;;;;;;5021238;28;20072;-77
2022/06/23 11:36:17;;;;;;;4.63;1.90;;;32.60;40.10;;;;;;5043769;28;20049;-78
2022/06/23 11:39:06;;;;;;;5.05;1.80;;;32.10;39.30;;;;;;5049284;28;20061;-77
2022/06/23 11:42:06;;;;;;;5.57;2.08;;;32.40;38.60;;;;;;5057614;28;20061;-76
2022/06/23 11:44:34;;;;;;;4.43;1.70;;;32.70;39.10;;;;;;5021160;28;20124;-77
2022/06/23 11:47:09;;;;;;;5.45;2.05;;;32.50;39.90;;;;;;5035998;28;20119;-83
2022/06/23 11:49:58;;;;;;;4.43;1.88;;;32.30;39.70;;;;;;5033643;28;20037;-79
2022/06/23 11:52:46;;;;;;;5.95;2.10;;;32.50;39.50;;;;;;5028267;28;20049;-77
2022/06/23 11:55:33;;;;;;;7.38;1.85;;;32.70;39.10;;;;;;5048508;28;20045;-79
2022/06/23 11:58:05;;;;;;;7.35;1.90;;;32.50;38.60;;;;;;5033653;28;20046;-78
2022/06/23 12:00:53;;;;;;;4.50;1.80;;;32.90;37.80;;;;;;5045236;28;20403;-80
2022/06/23 12:03:47;;;;;;;5.75;1.90;;;33.00;39.60;;;;;;5038206;28;20167;-78
2022/06/23 12:06:33;;;;;;;5.05;1.83;;;33.10;38.60;;;;;;5032985;28;20037;-80
2022/06/23 12:09:11;;;;;;;5.00;1.90;;;33.00;37.70;;;;;;5047569;28;20124;-80
2022/06/23 12:11:38;;;;;;;5.20;2.20;;;32.50;37.40;;;;;;5041228;28;20049;-78
2022/06/23 12:14:07;;;;;;;4.60;1.98;;;32.50;39.00;;;;;;5038871;28;20056;-78
2022/06/23 12:16:39;;;;;;;4.78;1.85;;;32.60;38.70;;;;;;5036929;28;20051;-78
2022/06/23 12:19:10;;;;;;;6.32;2.10;;;32.80;38.60;;;;;;5034626;28;20080;-79
2022/06/23 12:22:10;;;;;;;4.60;1.98;;;32.90;39.20;;;;;;5035898;28;20061;-77
2022/06/23 12:24:47;;;;;;;9.67;2.30;;;33.00;39.10;;;;;;5062391;28;20049;-76
2022/06/23 12:27:22;;;;;;;5.75;1.90;;;33.10;36.30;;;;;;5041914;28;20496;-76
2022/06/23 12:29:55;;;;;;;5.00;1.90;;;33.10;37.90;;;;;;5033116;28;20049;-76
2022/06/23 12:32:37;;;;;;;5.70;2.08;;;33.00;38.10;;;;;;5029360;28;20059;-77
2022/06/23 12:35:24;;;;;;;6.90;1.92;;;32.90;36.70;;;;;;5031928;28;20052;-78
2022/06/23 12:38:10;;;;;;;5.82;2.20;;;33.00;35.90;;;;;;5039387;28;20115;-77
2022/06/23 12:40:50;;;;;;;5.03;1.90;;;32.90;36.60;;;;;;5030691;28;20065;-80
2022/06/23 12:43:31;;;;;;;7.87;2.10;;;32.90;35.30;;;;;;5031201;28;20045;-78
2022/06/23 12:46:12;;;;;;;;;;;32.90;37.00;;;;;;5038216;28;20127;-76
2022/06/23 12:49:05;;;;;;;5.50;2.10;;;32.90;37.10;;;;;;5032795;28;20294;-77
2022/06/23 12:51:43;;;;;;;7.40;2.00;;;33.00;36.20;;;;;;5031894;28;20552;-79
2022/06/23 12:54:20;;;;;;;4.25;1.80;;;33.00;37.30;;;;;;5036223;28;20065;-76
2022/06/23 12:57:01;;;;;;;5.28;1.80;;;33.00;36.90;;;;;;4981568;28;20140;-80
2022/06/23 12:59:52;;;;;;;5.63;2.05;;;33.20;35.60;;;;;;5031340;28;20377;-80
2022/06/23 13:02:30;;;;;;;7.25;2.10;;;33.40;36.80;;;;;;5024139;28;20062;-76
2022/06/23 13:05:02;;;;;;;5.10;2.10;;;33.40;35.30;;;;;;5035845;28;20049;-77
2022/06/23 13:07:36;;;;;;;6.57;2.00;;;33.30;35.50;;;;;;5045774;28;20049;-77
2022/06/23 13:10:24;;;;;;;5.07;2.00;;;33.10;34.50;;;;;;5026157;28;20072;-87
2022/06/23 13:13:08;;;;;;;5.88;2.10;;;32.90;34.90;;;;;;5032178;28;20056;-75
2022/06/23 13:15:52;;;;;;;6.32;2.28;;;32.70;36.20;;;;;;5032014;28;20060;-78
2022/06/23 13:18:36;;;;;;;5.20;1.77;;;32.50;36.60;;;;;;5039211;28;20715;-77
2022/06/23 13:21:13;;;;;;;5.43;2.15;;;32.90;36.20;;;;;;5030243;28;20046;-77
2022/06/23 13:23:53;;;;;;;4.63;1.88;;;33.10;35.10;;;;;;5035761;28;20045;-81
2022/06/23 13:26:26;;;;;;;5.22;2.00;;;33.10;35.60;;;;;;5032869;28;20064;-78
2022/06/23 13:29:13;;;;;;;4.85;2.00;;;33.10;35.80;;;;;;5034062;28;20050;-79
2022/06/23 13:32:06;;;;;;;4.32;1.90;;;33.20;34.00;;;;;;5039467;28;20516;-78
2022/06/23 13:34:45;;;;;;;5.03;1.92;;;33.20;35.60;;;;;;5009577;28;20531;-79
2022/06/23 13:37:29;;;;;;;11.60;2.20;;;33.20;34.80;;;;;;5037690;28;20076;-80
2022/06/23 13:40:05;;;;;;;5.22;2.03;;;33.20;35.00;;;;;;5034994;28;20041;-83
2022/06/23 13:42:38;;;;;;;5.72;1.80;;;33.20;35.10;;;;;;5035121;28;20045;-79
2022/06/23 13:45:36;;;;;;;5.45;1.90;;;33.20;34.30;;;;;;5031566;28;20071;-76
2022/06/23 13:48:26;;;;;;;6.65;2.00;;;33.10;34.20;;;;;;4981808;28;20062;-77
2022/06/23 13:51:05;;;;;;;6.55;2.00;;;33.00;35.50;;;;;;5019118;28;20216;-79
2022/06/23 13:53:34;;;;;;;5.72;1.95;;;33.10;33.90;;;;;;5035104;28;20049;-78
2022/06/23 13:56:34;;;;;;;5.47;2.17;;;33.10;33.70;;;;;;5030894;28;20046;-78
2022/06/23 13:59:12;;;;;;;6.43;1.80;;;32.90;34.40;;;;;;5030812;28;20064;-82